createdAt,value
2022-10-05T00:01:23.445Z,16.20
2022-10-05T00:04:15.623Z,16.20
2022-10-05T00:07:14.304Z,16.20
2022-10-05T00:10:01.341Z,16.20
2022-10-05T00:12:41.605Z,16.20
2022-10-05T00:15:16.791Z,16.10
2022-10-05T00:17:49.175Z,16.20
2022-10-05T00:20:52.929Z,16.20
2022-10-05T00:24:16.552Z,16.20
2022-10-05T00:26:54.173Z,16.20
2022-10-05T00:29:35.856Z,16.10
2022-10-05T00:32:38.708Z,16.10
2022-10-05T00:35:09.641Z,16.10
2022-10-05T00:37:55.917Z,16.10
2022-10-05T00:40:53.561Z,16.10
2022-10-05T00:44:01.796Z,16.10
2022-10-05T00:46:47.722Z,16.10
2022-10-05T00:49:41.892Z,16.10
2022-10-05T00:52:42.749Z,16.10
2022-10-05T00:55:22.567Z,16.10
2022-10-05T00:59:04.463Z,16.10
2022-10-05T01:01:45.382Z,16.10
2022-10-05T01:08:09.945Z,16.00
2022-10-05T01:11:00.514Z,16.00
2022-10-05T01:13:42.219Z,16.00
2022-10-05T01:24:22.573Z,16.00
2022-10-05T01:27:23.094Z,15.90
2022-10-05T01:30:13.345Z,15.90
2022-10-05T01:33:13.394Z,15.90
2022-10-05T01:35:58.601Z,15.90
2022-10-05T01:38:39.758Z,15.80
2022-10-05T01:41:32.334Z,15.80
2022-10-05T01:44:22.896Z,15.70
2022-10-05T01:47:18.799Z,15.70
2022-10-05T01:50:24.911Z,15.70
2022-10-05T01:53:23.711Z,15.70
2022-10-05T01:56:01.159Z,15.60
2022-10-05T01:58:37.668Z,15.60
2022-10-05T02:01:14.942Z,15.60
2022-10-05T02:03:52.817Z,15.50
2022-10-05T02:07:02.166Z,15.50
2022-10-05T02:09:43.128Z,15.50
2022-10-05T02:12:16.576Z,15.50
2022-10-05T02:15:33.577Z,15.50
2022-10-05T02:18:22.300Z,15.40
2022-10-05T02:20:56.367Z,15.40
2022-10-05T02:24:20.415Z,15.40
2022-10-05T02:30:42.550Z,15.30
2022-10-05T02:34:05.317Z,15.30
2022-10-05T02:36:56.793Z,15.30
2022-10-05T02:39:49.658Z,15.30
2022-10-05T02:42:40.300Z,15.30
2022-10-05T02:45:28.740Z,15.30
2022-10-05T02:48:13.968Z,15.30
2022-10-05T02:54:56.723Z,15.40
2022-10-05T02:57:40.063Z,15.40
2022-10-05T03:00:37.252Z,15.40
2022-10-05T03:03:22.623Z,15.50
2022-10-05T03:06:16.649Z,15.50
2022-10-05T03:16:40.490Z,15.60
2022-10-05T03:19:30.692Z,15.60
2022-10-05T03:22:36.617Z,15.50
2022-10-05T03:28:59.488Z,15.50
2022-10-05T03:31:44.978Z,15.60
2022-10-05T03:34:29.123Z,15.60
2022-10-05T03:37:11.886Z,15.60
2022-10-05T03:39:59.127Z,15.60
2022-10-05T03:43:06.418Z,15.50
2022-10-05T03:46:09.937Z,15.60
2022-10-05T03:48:53.640Z,15.60
2022-10-05T03:51:37.555Z,15.60
2022-10-05T03:54:48.093Z,15.60
2022-10-05T03:57:20.098Z,15.70
2022-10-05T04:00:25.784Z,15.70
2022-10-05T04:03:06.144Z,15.60
2022-10-05T04:06:49.758Z,15.70
2022-10-05T04:09:52.328Z,15.70
2022-10-05T04:12:37.113Z,15.70
2022-10-05T04:15:20.700Z,15.70
2022-10-05T04:17:56.103Z,15.70
2022-10-05T04:21:04.909Z,15.70
2022-10-05T04:27:24.848Z,15.60
2022-10-05T04:29:59.443Z,15.70
2022-10-05T04:36:25.484Z,15.70
2022-10-05T04:39:06.219Z,15.60
2022-10-05T04:42:12.264Z,15.60
2022-10-05T04:45:15.687Z,15.60
2022-10-05T04:48:40.376Z,15.60
2022-10-05T04:51:36.540Z,15.60
2022-10-05T04:54:20.944Z,15.60
2022-10-05T04:56:54.264Z,15.60
2022-10-05T05:03:30.688Z,15.60
2022-10-05T05:06:17.309Z,15.60
2022-10-05T05:09:11.978Z,15.60
2022-10-05T05:11:50.262Z,15.60
2022-10-05T05:14:40.350Z,15.60
2022-10-05T05:17:26.231Z,15.50
2022-10-05T05:20:09.150Z,15.50
2022-10-05T05:22:44.304Z,15.50
2022-10-05T05:25:26.080Z,15.50
2022-10-05T05:28:18.949Z,15.50
2022-10-05T05:30:53.785Z,15.50
2022-10-05T05:33:46.941Z,15.50
2022-10-05T05:36:46.603Z,15.50
2022-10-05T05:39:47.657Z,15.50
2022-10-05T05:42:39.230Z,15.50
2022-10-05T05:45:36.104Z,15.40
2022-10-05T05:51:58.362Z,15.40
2022-10-05T05:54:34.152Z,15.40
2022-10-05T05:57:11.121Z,15.40
2022-10-05T06:00:01.385Z,15.40
2022-10-05T06:02:44.868Z,15.40
2022-10-05T06:05:30.040Z,15.40
2022-10-05T06:08:05.432Z,15.40
2022-10-05T06:11:06.253Z,15.40
2022-10-05T06:13:59.953Z,15.40
2022-10-05T06:16:45.907Z,15.40
2022-10-05T06:20:05.260Z,15.40
2022-10-05T06:23:03.435Z,15.40
2022-10-05T06:26:09.731Z,15.40
2022-10-05T06:28:59.971Z,15.40
2022-10-05T06:32:06.146Z,15.40
2022-10-05T06:35:14.731Z,15.40
2022-10-05T06:38:28.286Z,15.40
2022-10-05T06:41:19.976Z,15.40
2022-10-05T06:43:57.089Z,15.40
2022-10-05T06:46:40.536Z,15.50
2022-10-05T06:49:19.749Z,15.50
2022-10-05T06:52:15.482Z,15.50
2022-10-05T06:55:32.957Z,15.50
2022-10-05T07:02:05.926Z,15.50
2022-10-05T07:08:30.582Z,15.60
2022-10-05T07:11:31.298Z,15.60
2022-10-05T07:14:21.237Z,15.60
2022-10-05T07:20:35.839Z,15.70
2022-10-05T07:23:46.310Z,15.70
2022-10-05T07:26:35.069Z,15.70
2022-10-05T07:29:23.849Z,15.70
2022-10-05T07:32:08.350Z,15.70
2022-10-05T07:34:50.536Z,15.70
2022-10-05T07:37:45.049Z,15.80
2022-10-05T07:40:20.625Z,15.80
2022-10-05T07:44:07.817Z,15.80
2022-10-05T07:46:52.802Z,15.80
2022-10-05T07:50:12.682Z,15.80
2022-10-05T07:52:56.650Z,15.80
2022-10-05T07:55:52.607Z,15.80
2022-10-05T07:59:10.912Z,15.90
2022-10-05T08:02:28.926Z,15.80
2022-10-05T08:05:49.073Z,15.90
2022-10-05T08:09:09.304Z,15.80
2022-10-05T08:16:28.951Z,15.90
2022-10-05T08:19:48.969Z,15.90
2022-10-05T08:27:08.836Z,15.90
2022-10-05T08:33:40.662Z,16.10
2022-10-05T08:36:54.011Z,16.10
2022-10-05T08:39:33.276Z,16.10
2022-10-05T08:42:35.475Z,16.10
2022-10-05T08:45:45.461Z,16.10
2022-10-05T08:49:02.098Z,16.20
2022-10-05T08:52:08.652Z,16.20
2022-10-05T08:55:17.280Z,16.30
2022-10-05T09:01:52.685Z,16.30
2022-10-05T09:04:38.602Z,16.40
2022-10-05T09:07:44.341Z,16.40
2022-10-05T09:10:55.101Z,16.50
2022-10-05T09:17:45.707Z,16.60
2022-10-05T09:20:44.850Z,16.60
2022-10-05T09:23:38.909Z,16.60
2022-10-05T09:26:59.637Z,16.60
2022-10-05T09:30:27.980Z,16.60
2022-10-05T09:33:42.840Z,16.70
2022-10-05T09:37:04.138Z,16.80
2022-10-05T09:40:27.864Z,16.90
2022-10-05T09:43:32.087Z,17.00
2022-10-05T09:46:40.655Z,17.10
2022-10-05T09:49:43.315Z,17.10
2022-10-05T09:53:03.214Z,17.10
2022-10-05T09:56:16.275Z,17.20
2022-10-05T09:59:32.320Z,17.30
2022-10-05T10:02:31.938Z,17.30
2022-10-05T10:05:43.438Z,17.40
2022-10-05T10:08:28.870Z,17.50
2022-10-05T10:11:36.202Z,17.50
2022-10-05T10:15:03.006Z,17.50
2022-10-05T10:17:48.613Z,17.60
2022-10-05T10:20:34.897Z,17.60
2022-10-05T10:23:31.556Z,17.60
2022-10-05T10:26:55.471Z,17.70
2022-10-05T10:30:19.142Z,17.70
2022-10-05T10:33:30.283Z,17.70
2022-10-05T10:36:14.867Z,17.70
2022-10-05T10:39:13.423Z,17.70
2022-10-05T10:42:28.915Z,17.70
2022-10-05T10:45:19.343Z,17.70
2022-10-05T10:48:03.280Z,17.70
2022-10-05T10:51:01.201Z,17.70
2022-10-05T10:53:42.270Z,17.70
2022-10-05T10:56:30.762Z,17.80
2022-10-05T10:59:33.165Z,17.70
2022-10-05T11:02:37.389Z,17.80
2022-10-05T11:05:40.016Z,17.80
2022-10-05T11:08:34.148Z,17.90
2022-10-05T11:11:36.278Z,17.90
2022-10-05T11:14:36.727Z,18.00
2022-10-05T11:17:43.212Z,18.00
2022-10-05T11:20:46.095Z,18.10
2022-10-05T11:23:36.608Z,18.30
2022-10-05T11:26:44.747Z,18.40
2022-10-05T11:33:44.821Z,18.50
2022-10-05T11:36:59.532Z,18.50
2022-10-05T11:40:04.135Z,18.50
2022-10-05T11:43:15.343Z,18.50
2022-10-05T11:45:59.593Z,18.40
2022-10-05T11:48:53.377Z,18.50
2022-10-05T11:51:38.609Z,18.60
2022-10-05T11:54:22.809Z,18.90
2022-10-05T11:56:57.813Z,18.90
2022-10-05T11:59:54.122Z,19.00
2022-10-05T12:03:14.373Z,19.10
2022-10-05T12:06:27.096Z,19.00
2022-10-05T12:09:23.197Z,19.00
2022-10-05T12:12:16.851Z,19.00
2022-10-05T12:15:18.208Z,19.00
2022-10-05T12:17:53.598Z,19.00
2022-10-05T12:20:29.439Z,19.00
2022-10-05T12:23:04.266Z,18.90
2022-10-05T12:25:46.887Z,18.90
2022-10-05T12:28:21.248Z,19.00
2022-10-05T12:31:08.933Z,19.20
2022-10-05T12:33:57.712Z,19.30
2022-10-05T12:37:02.495Z,19.30
2022-10-05T12:40:08.919Z,19.30
2022-10-05T12:43:04.785Z,19.20
2022-10-05T12:45:50.156Z,19.40
2022-10-05T12:48:56.076Z,19.50
2022-10-05T12:51:44.205Z,19.40
2022-10-05T12:54:22.605Z,19.40
2022-10-05T12:56:56.307Z,19.40
2022-10-05T12:59:57.313Z,19.40
2022-10-05T13:02:39.035Z,19.30
2022-10-05T13:05:24.210Z,19.40
2022-10-05T13:08:19.089Z,19.40
2022-10-05T13:11:05.363Z,19.40
2022-10-05T13:13:44.483Z,19.40
2022-10-05T13:16:25.820Z,19.40
2022-10-05T13:19:16.671Z,19.50
2022-10-05T13:22:22.650Z,19.40
2022-10-05T13:25:06.667Z,19.50
2022-10-05T13:27:41.873Z,19.60
2022-10-05T13:30:17.096Z,19.60
2022-10-05T13:32:58.525Z,19.50
2022-10-05T13:35:44.989Z,19.50
2022-10-05T13:38:26.469Z,19.50
2022-10-05T13:41:11.591Z,19.50
2022-10-05T13:43:59.829Z,19.50
2022-10-05T13:46:37.394Z,19.50
2022-10-05T13:49:21.597Z,19.60
2022-10-05T13:51:58.614Z,19.50
2022-10-05T13:54:37.946Z,19.40
2022-10-05T13:57:21.272Z,19.40
2022-10-05T13:59:56.135Z,19.40
2022-10-05T14:02:30.855Z,19.50
2022-10-05T14:05:18.006Z,19.50
2022-10-05T14:07:55.393Z,19.60
2022-10-05T14:10:50.463Z,19.60
2022-10-05T14:13:33.442Z,19.40
2022-10-05T14:16:20.067Z,19.40
2022-10-05T14:19:18.625Z,19.40
2022-10-05T14:21:55.704Z,19.30
2022-10-05T14:24:45.899Z,19.20
2022-10-05T14:27:39.594Z,19.20
2022-10-05T14:30:22.133Z,19.20
2022-10-05T14:32:55.381Z,19.10
2022-10-05T14:35:44.879Z,19.00
2022-10-05T14:38:21.260Z,19.00
2022-10-05T14:41:05.706Z,19.00
2022-10-05T14:43:35.861Z,18.90
2022-10-05T14:46:28.114Z,19.00
2022-10-05T14:49:18.244Z,19.00
2022-10-05T14:51:46.484Z,19.00
2022-10-05T14:54:41.897Z,18.90
2022-10-05T14:57:22.591Z,18.90
2022-10-05T15:00:11.644Z,18.90
2022-10-05T15:03:07.014Z,18.90
2022-10-05T15:05:54.689Z,18.70
2022-10-05T15:08:51.227Z,18.70
2022-10-05T15:11:46.372Z,18.60
2022-10-05T15:14:24.665Z,18.60
2022-10-05T15:17:17.915Z,18.70
2022-10-05T15:19:53.902Z,18.60
2022-10-05T15:22:46.517Z,18.60
2022-10-05T15:25:18.195Z,18.60
2022-10-05T15:28:07.395Z,18.50
2022-10-05T15:30:40.083Z,18.50
2022-10-05T15:33:15.856Z,18.50
2022-10-05T15:35:55.437Z,18.40
2022-10-05T15:38:37.510Z,18.40
2022-10-05T15:41:15.977Z,18.40
2022-10-05T15:44:08.487Z,18.40
2022-10-05T15:46:47.687Z,18.30
2022-10-05T15:49:28.705Z,18.30
2022-10-05T15:52:09.993Z,18.30
2022-10-05T15:55:05.168Z,18.20
2022-10-05T15:57:39.905Z,18.20
2022-10-05T16:00:13.543Z,18.20
2022-10-05T16:02:52.113Z,18.20
2022-10-05T16:05:54.923Z,18.20
2022-10-05T16:09:01.292Z,18.10
2022-10-05T16:11:40.503Z,18.10
2022-10-05T16:14:43.119Z,18.00
2022-10-05T16:17:34.830Z,18.00
2022-10-05T16:20:22.464Z,18.00
2022-10-05T16:23:08.927Z,17.90
2022-10-05T16:25:48.717Z,17.90
2022-10-05T16:28:32.816Z,17.80
2022-10-05T16:31:13.361Z,17.80
2022-10-05T16:33:55.476Z,17.80
2022-10-05T16:36:40.340Z,17.80
2022-10-05T16:39:16.857Z,17.80
2022-10-05T16:42:03.987Z,17.80
2022-10-05T16:44:41.964Z,17.70
2022-10-05T16:47:35.623Z,17.70
2022-10-05T16:50:22.681Z,17.70
2022-10-05T16:52:56.569Z,17.70
2022-10-05T16:55:33.163Z,17.70
2022-10-05T16:58:05.276Z,17.70
2022-10-05T17:00:52.013Z,17.70
2022-10-05T17:03:40.883Z,17.70
2022-10-05T17:06:41.283Z,17.60
2022-10-05T17:09:32.221Z,17.60
2022-10-05T17:12:31.356Z,17.60
2022-10-05T17:15:32.830Z,17.60
2022-10-05T17:18:43.316Z,17.60
2022-10-05T17:21:17.812Z,17.60
2022-10-05T17:24:05.469Z,17.60
2022-10-05T17:27:03.632Z,17.60
2022-10-05T17:29:52.501Z,17.60
2022-10-05T17:33:02.915Z,17.60
2022-10-05T17:35:53.634Z,17.50
2022-10-05T17:38:41.832Z,17.50
2022-10-05T17:41:21.253Z,17.50
2022-10-05T17:44:35.377Z,17.60
2022-10-05T17:47:14.051Z,17.50
2022-10-05T17:50:29.858Z,17.50
2022-10-05T17:53:38.963Z,17.50
2022-10-05T17:56:16.206Z,17.60
2022-10-05T17:59:04.221Z,17.50
2022-10-05T18:01:36.066Z,17.50
2022-10-05T18:04:33.737Z,17.50
2022-10-05T18:07:25.532Z,17.60
2022-10-05T18:10:00.743Z,17.60
2022-10-05T18:12:45.385Z,17.60
2022-10-05T18:15:48.401Z,17.60
2022-10-05T18:19:05.408Z,17.60
2022-10-05T18:21:40.173Z,17.60
2022-10-05T18:24:39.129Z,17.60
2022-10-05T18:27:34.334Z,17.60
2022-10-05T18:30:21.361Z,17.60
2022-10-05T18:33:20.719Z,17.60
2022-10-05T18:36:19.823Z,17.60
2022-10-05T18:39:11.185Z,17.70
2022-10-05T18:41:57.484Z,17.70
2022-10-05T18:44:44.617Z,17.70
2022-10-05T18:47:20.806Z,17.80
2022-10-05T18:50:06.285Z,17.80
2022-10-05T18:52:54.531Z,17.80
2022-10-05T18:55:32.842Z,17.80
2022-10-05T18:58:15.910Z,17.90
2022-10-05T19:01:10.987Z,17.90
2022-10-05T19:03:50.121Z,18.00
2022-10-05T19:06:26.212Z,18.00
2022-10-05T19:09:26.860Z,17.90
2022-10-05T19:12:04.630Z,17.90
2022-10-05T19:14:52.106Z,17.90
2022-10-05T19:18:04.518Z,18.00
2022-10-05T19:20:37.562Z,18.00
2022-10-05T19:23:40.974Z,18.00
2022-10-05T19:26:25.810Z,17.90
2022-10-05T19:29:15.965Z,17.90
2022-10-05T19:32:25.299Z,17.90
2022-10-05T19:35:16.968Z,17.90
2022-10-05T19:37:54.821Z,18.00
2022-10-05T19:41:04.614Z,18.00
2022-10-05T19:43:50.732Z,18.00
2022-10-05T19:46:44.111Z,17.90
2022-10-05T19:49:43.016Z,17.80
2022-10-05T19:52:21.002Z,17.80
2022-10-05T19:55:05.347Z,17.70
2022-10-05T19:57:37.791Z,17.60
2022-10-05T20:00:37.832Z,17.60
2022-10-05T20:03:13.834Z,17.60
2022-10-05T20:05:42.208Z,17.50
2022-10-05T20:08:17.076Z,16.80
2022-10-05T20:10:46.258Z,16.30
2022-10-05T20:13:22.717Z,15.90
2022-10-05T20:16:41.302Z,15.70
2022-10-05T20:19:47.708Z,15.50
2022-10-05T20:22:30.757Z,15.40
2022-10-05T20:25:01.256Z,15.20
2022-10-05T20:27:46.550Z,15.20
2022-10-05T20:30:16.653Z,15.10
2022-10-05T20:32:45.712Z,15.20
2022-10-05T20:35:16.509Z,15.10
2022-10-05T20:37:44.664Z,15.00
2022-10-05T20:40:14.801Z,15.00
2022-10-05T20:42:42.965Z,15.00
2022-10-05T20:45:12.060Z,15.00
2022-10-05T20:47:40.563Z,15.00
2022-10-05T20:50:10.448Z,15.00
2022-10-05T20:52:40.051Z,15.10
2022-10-05T20:55:12.160Z,15.00
2022-10-05T20:57:42.250Z,14.90
2022-10-05T21:00:12.300Z,15.00
2022-10-05T21:02:40.756Z,15.00
2022-10-05T21:05:10.625Z,14.90
2022-10-05T21:07:40.957Z,15.00
2022-10-05T21:10:09.951Z,14.90
2022-10-05T21:12:38.430Z,14.90
2022-10-05T21:15:08.362Z,14.90
2022-10-05T21:17:38.060Z,14.90
2022-10-05T21:20:07.433Z,14.80
2022-10-05T21:22:36.379Z,14.90
2022-10-05T21:25:08.986Z,14.90
2022-10-05T21:27:37.206Z,14.90
2022-10-05T21:30:05.998Z,14.90
2022-10-05T21:32:34.140Z,14.90
2022-10-05T21:35:03.345Z,14.80
2022-10-05T21:37:32.547Z,14.80
2022-10-05T21:40:01.058Z,14.80
2022-10-05T21:42:30.659Z,14.80
2022-10-05T21:44:58.943Z,14.70
2022-10-05T21:47:27.187Z,14.70
2022-10-05T21:50:05.280Z,14.70
2022-10-05T21:52:34.752Z,14.70
2022-10-05T21:55:03.451Z,14.70
2022-10-05T21:57:35.770Z,14.70
2022-10-05T22:00:05.756Z,14.60
2022-10-05T22:02:33.974Z,14.50
2022-10-05T22:05:02.130Z,14.50
2022-10-05T22:07:30.406Z,14.40
2022-10-05T22:09:59.631Z,14.50
2022-10-05T22:12:28.290Z,14.30
2022-10-05T22:14:57.845Z,14.30
2022-10-05T22:17:29.675Z,14.30
2022-10-05T22:19:58.845Z,14.30
2022-10-05T22:22:27.713Z,14.30
2022-10-05T22:24:56.520Z,14.20
2022-10-05T22:27:26.985Z,14.20
2022-10-05T22:29:58.581Z,14.20
2022-10-05T22:32:26.983Z,14.20
2022-10-05T22:34:55.162Z,14.20
2022-10-05T22:37:24.505Z,14.20
2022-10-05T22:39:55.244Z,14.20
2022-10-05T22:42:23.510Z,14.20
2022-10-05T22:44:51.791Z,14.30
2022-10-05T22:47:23.430Z,14.30
2022-10-05T22:49:51.792Z,14.30
2022-10-05T22:52:20.009Z,14.30
2022-10-05T22:54:48.300Z,14.30
2022-10-05T22:57:16.698Z,14.20
2022-10-05T22:59:45.223Z,14.20
2022-10-05T23:02:14.153Z,14.20
2022-10-05T23:04:43.810Z,14.10
2022-10-05T23:07:12.148Z,14.10
2022-10-05T23:09:40.400Z,14.10
2022-10-05T23:12:08.625Z,14.10
2022-10-05T23:14:37.784Z,14.10
2022-10-05T23:17:07.982Z,14.10
2022-10-05T23:19:36.216Z,14.00
2022-10-05T23:22:06.772Z,14.00
2022-10-05T23:24:35.477Z,14.00
2022-10-05T23:27:03.797Z,14.00
2022-10-05T23:29:32.038Z,14.00
2022-10-05T23:32:01.287Z,13.90
2022-10-05T23:34:29.525Z,13.90
2022-10-05T23:36:57.809Z,13.90
2022-10-05T23:39:27.361Z,13.90
2022-10-05T23:41:56.629Z,13.90
2022-10-05T23:44:24.817Z,13.90
2022-10-05T23:46:54.196Z,13.90
2022-10-05T23:49:24.422Z,13.90
2022-10-05T23:51:52.757Z,13.90
2022-10-05T23:54:21.016Z,13.90
2022-10-05T23:56:50.777Z,13.90
2022-10-05T23:59:21.017Z,13.80
